createdAt,value
2019-02-02T00:00:28.914Z,24.10
2019-02-02T00:02:55.466Z,24.53
2019-02-02T00:05:24.695Z,24.97
2019-02-02T00:07:51.146Z,23.80
2019-02-02T00:10:17.618Z,22.77
2019-02-02T00:12:44.166Z,23.77
2019-02-02T00:15:10.573Z,25.67
2019-02-02T00:17:37.117Z,25.00
2019-02-02T00:20:05.488Z,26.90
2019-02-02T00:22:31.832Z,25.60
2019-02-02T00:24:58.404Z,24.30
2019-02-02T00:27:24.790Z,26.00
2019-02-02T00:29:51.240Z,25.03
2019-02-02T00:32:17.711Z,22.83
2019-02-02T00:34:44.169Z,22.87
2019-02-02T00:37:10.784Z,23.67
2019-02-02T00:39:37.239Z,23.30
2019-02-02T00:42:03.837Z,22.70
2019-02-02T00:44:30.211Z,23.57
2019-02-02T00:46:56.690Z,24.27
2019-02-02T00:49:23.148Z,23.03
2019-02-02T00:51:49.630Z,23.80
2019-02-02T00:54:16.189Z,22.60
2019-02-02T00:56:42.579Z,22.03
2019-02-02T00:59:09.135Z,23.60
2019-02-02T01:01:35.507Z,22.83
2019-02-02T01:04:02.168Z,21.87
2019-02-02T01:06:28.636Z,21.77
2019-02-02T01:08:55.200Z,22.90
2019-02-02T01:11:21.971Z,24.03
2019-02-02T01:13:48.359Z,24.30
2019-02-02T01:16:15.106Z,23.33
2019-02-02T01:18:41.560Z,25.57
2019-02-02T01:21:07.921Z,25.53
2019-02-02T01:23:34.383Z,22.30
2019-02-02T01:26:00.835Z,23.33
2019-02-02T01:28:27.408Z,22.57
2019-02-02T01:30:53.982Z,23.37
2019-02-02T01:33:20.556Z,24.33
2019-02-02T01:35:47.011Z,24.73
2019-02-02T01:38:13.519Z,24.27
2019-02-02T01:40:39.983Z,24.83
2019-02-02T01:43:06.370Z,24.90
2019-02-02T01:45:32.815Z,23.93
2019-02-02T01:47:59.406Z,24.80
2019-02-02T01:50:26.488Z,23.63
2019-02-02T01:52:53.042Z,22.80
2019-02-02T01:55:19.793Z,22.70
2019-02-02T01:57:46.359Z,20.80
2019-02-02T02:00:14.741Z,21.97
2019-02-02T02:02:41.291Z,23.57
2019-02-02T02:05:08.077Z,24.40
2019-02-02T02:07:34.546Z,24.57
2019-02-02T02:10:01.029Z,24.33
2019-02-02T02:12:27.479Z,24.00
2019-02-02T02:14:53.971Z,22.10
2019-02-02T02:17:20.419Z,24.43
2019-02-02T02:19:46.891Z,24.10
2019-02-02T02:22:13.248Z,25.60
2019-02-02T02:24:39.716Z,24.47
2019-02-02T02:27:06.168Z,20.83
2019-02-02T02:29:32.969Z,22.73
2019-02-02T02:31:59.520Z,22.80
2019-02-02T02:34:25.910Z,23.30
2019-02-02T02:36:52.537Z,25.07
2019-02-02T02:39:18.906Z,26.80
2019-02-02T02:41:45.259Z,27.00
2019-02-02T02:44:11.727Z,27.03
2019-02-02T02:46:38.290Z,25.57
2019-02-02T02:49:04.687Z,27.33
2019-02-02T02:51:31.148Z,27.43
2019-02-02T02:53:57.615Z,26.80
2019-02-02T02:56:24.175Z,29.23
2019-02-02T02:58:50.545Z,27.60
2019-02-02T03:01:17.039Z,27.43
2019-02-02T03:03:43.494Z,26.43
2019-02-02T03:06:09.974Z,28.77
2019-02-02T03:08:36.425Z,29.63
2019-02-02T03:11:02.894Z,28.37
2019-02-02T03:13:29.354Z,26.70
2019-02-02T03:15:55.850Z,28.00
2019-02-02T03:18:22.606Z,25.93
2019-02-02T03:20:48.977Z,26.30
2019-02-02T03:23:15.648Z,26.60
2019-02-02T03:25:42.199Z,25.87
2019-02-02T03:28:08.579Z,28.20
2019-02-02T03:30:35.164Z,31.20
2019-02-02T03:33:01.607Z,30.73
2019-02-02T03:35:28.093Z,30.20
2019-02-02T03:37:54.548Z,29.87
2019-02-02T03:40:21.501Z,29.70
2019-02-02T03:42:48.070Z,30.63
2019-02-02T03:45:16.947Z,30.60
2019-02-02T03:47:43.406Z,28.03
2019-02-02T03:50:10.537Z,31.27
2019-02-02T03:52:37.032Z,29.37
2019-02-02T03:55:04.688Z,29.10
2019-02-02T03:57:31.074Z,29.27
2019-02-02T03:59:57.532Z,28.97
2019-02-02T04:02:24.003Z,27.40
2019-02-02T04:04:50.450Z,27.77
2019-02-02T04:07:16.925Z,29.70
2019-02-02T04:09:43.366Z,27.27
2019-02-02T04:12:09.984Z,27.40
2019-02-02T04:14:36.542Z,26.67
2019-02-02T04:17:03.119Z,28.13
2019-02-02T04:19:29.587Z,25.57
2019-02-02T04:21:56.065Z,28.77
2019-02-02T04:24:22.626Z,28.83
2019-02-02T04:26:48.973Z,28.90
2019-02-02T04:29:17.716Z,29.17
2019-02-02T04:31:43.815Z,30.37
2019-02-02T04:34:10.194Z,29.13
2019-02-02T04:36:36.634Z,30.00
2019-02-02T04:39:05.054Z,30.77
2019-02-02T04:41:31.630Z,32.17
2019-02-02T04:43:58.274Z,29.47
2019-02-02T04:46:24.731Z,30.30
2019-02-02T04:48:51.299Z,28.00
2019-02-02T04:51:17.869Z,29.50
2019-02-02T04:53:44.322Z,25.47
2019-02-02T04:56:10.706Z,27.33
2019-02-02T04:58:37.169Z,28.40
2019-02-02T05:01:03.617Z,27.80
2019-02-02T05:03:30.203Z,28.67
2019-02-02T05:05:56.661Z,28.67
2019-02-02T05:08:23.136Z,27.63
2019-02-02T05:10:49.683Z,28.80
2019-02-02T05:13:16.267Z,27.57
2019-02-02T05:15:42.631Z,28.57
2019-02-02T05:18:09.187Z,27.73
2019-02-02T05:20:35.675Z,30.73
2019-02-02T05:23:02.330Z,30.80
2019-02-02T05:25:28.736Z,28.57
2019-02-02T05:27:55.309Z,28.67
2019-02-02T05:30:23.091Z,28.07
2019-02-02T05:32:49.536Z,27.27
2019-02-02T05:35:16.004Z,26.80
2019-02-02T05:37:42.503Z,27.17
2019-02-02T05:40:10.503Z,27.53
2019-02-02T05:42:36.938Z,29.00
2019-02-02T05:45:04.715Z,28.60
2019-02-02T05:47:31.176Z,27.50
2019-02-02T05:49:57.646Z,26.53
2019-02-02T05:52:24.123Z,27.47
2019-02-02T05:54:50.759Z,27.87
2019-02-02T05:57:17.211Z,26.50
2019-02-02T05:59:52.545Z,26.97
2019-02-02T06:02:12.176Z,26.90
2019-02-02T06:04:38.625Z,25.67
2019-02-02T06:07:05.095Z,26.47
2019-02-02T06:09:31.557Z,26.00
2019-02-02T06:11:57.949Z,27.27
2019-02-02T06:14:24.519Z,25.20
2019-02-02T06:16:51.094Z,24.50
2019-02-02T06:19:17.538Z,25.27
2019-02-02T06:21:44.012Z,26.43
2019-02-02T06:24:10.576Z,24.77
2019-02-02T06:26:37.225Z,25.47
2019-02-02T06:29:04.025Z,26.33
2019-02-02T06:31:30.596Z,25.90
2019-02-02T06:33:57.143Z,24.07
2019-02-02T06:36:23.715Z,27.73
2019-02-02T06:38:50.208Z,34.23
2019-02-02T06:41:16.720Z,31.03
2019-02-02T06:43:43.171Z,26.47
2019-02-02T06:46:09.561Z,27.57
2019-02-02T06:48:36.017Z,27.90
2019-02-02T06:51:02.595Z,33.10
2019-02-02T06:53:29.052Z,30.90
2019-02-02T06:55:55.655Z,27.27
2019-02-02T06:58:22.116Z,26.63
2019-02-02T07:00:48.706Z,28.50
2019-02-02T07:03:15.153Z,27.00
2019-02-02T07:05:41.612Z,26.73
2019-02-02T07:08:08.093Z,25.70
2019-02-02T07:10:34.439Z,26.53
2019-02-02T07:13:01.002Z,25.97
2019-02-02T07:15:28.300Z,27.47
2019-02-02T07:17:54.850Z,26.70
2019-02-02T07:20:21.473Z,24.10
2019-02-02T07:22:47.958Z,27.53
2019-02-02T07:25:14.420Z,28.60
2019-02-02T07:27:40.891Z,25.93
2019-02-02T07:30:09.251Z,28.03
2019-02-02T07:32:35.734Z,26.00
2019-02-02T07:35:02.581Z,27.20
2019-02-02T07:37:29.092Z,27.03
2019-02-02T07:39:55.551Z,26.77
2019-02-02T07:42:22.136Z,25.73
2019-02-02T07:44:48.611Z,24.83
2019-02-02T07:47:15.058Z,24.53
2019-02-02T07:49:41.455Z,26.07
2019-02-02T07:52:10.576Z,26.37
2019-02-02T07:54:37.143Z,26.20
2019-02-02T07:57:03.599Z,29.23
2019-02-02T07:59:29.981Z,25.33
2019-02-02T08:01:56.531Z,27.17
2019-02-02T08:04:23.115Z,26.90
2019-02-02T08:06:49.499Z,26.73
2019-02-02T08:09:17.298Z,27.37
2019-02-02T08:11:43.751Z,25.70
2019-02-02T08:14:11.460Z,27.47
2019-02-02T08:16:38.286Z,26.00
2019-02-02T08:19:04.759Z,25.27
2019-02-02T08:21:31.216Z,26.00
2019-02-02T08:23:57.604Z,26.50
2019-02-02T08:26:24.155Z,25.23
2019-02-02T08:28:50.619Z,24.33
2019-02-02T08:31:17.095Z,28.83
2019-02-02T08:33:45.993Z,26.30
2019-02-02T08:36:12.443Z,26.30
2019-02-02T08:38:39.038Z,26.50
2019-02-02T08:41:05.431Z,27.13
2019-02-02T08:43:31.822Z,26.03
2019-02-02T08:45:58.246Z,26.13
2019-02-02T08:48:24.708Z,27.50
2019-02-02T08:50:51.181Z,27.37
2019-02-02T08:53:17.663Z,26.60
2019-02-02T08:55:44.268Z,26.47
2019-02-02T08:58:10.821Z,27.07
2019-02-02T09:00:37.608Z,27.37
2019-02-02T09:03:04.520Z,28.17
2019-02-02T09:05:31.101Z,26.73
2019-02-02T09:07:57.667Z,26.80
2019-02-02T09:10:25.551Z,26.10
2019-02-02T09:12:52.123Z,26.33
2019-02-02T09:15:18.798Z,25.47
2019-02-02T09:17:45.347Z,25.00
2019-02-02T09:20:12.494Z,30.07
2019-02-02T09:22:39.176Z,27.73
2019-02-02T09:25:07.430Z,24.93
2019-02-02T09:27:33.909Z,25.43
2019-02-02T09:30:00.454Z,23.73
2019-02-02T09:32:26.978Z,25.33
2019-02-02T09:34:53.434Z,25.73
2019-02-02T09:37:19.909Z,26.07
2019-02-02T09:39:46.763Z,25.43
2019-02-02T09:42:13.279Z,26.60
2019-02-02T09:44:39.719Z,28.23
2019-02-02T09:47:06.187Z,28.20
2019-02-02T09:49:32.579Z,29.50
2019-02-02T09:51:59.061Z,24.73
2019-02-02T09:54:26.894Z,24.33
2019-02-02T09:56:53.586Z,24.10
2019-02-02T09:59:20.156Z,24.30
2019-02-02T10:01:46.727Z,25.90
2019-02-02T10:04:13.390Z,25.47
2019-02-02T10:06:39.788Z,24.87
2019-02-02T10:09:06.573Z,25.07
2019-02-02T10:11:33.056Z,24.53
2019-02-02T10:13:59.516Z,24.63
2019-02-02T10:16:26.002Z,24.47
2019-02-02T10:18:52.455Z,24.60
2019-02-02T10:21:19.015Z,27.50
2019-02-02T10:23:45.505Z,29.83
2019-02-02T10:26:12.279Z,26.63
2019-02-02T10:28:38.923Z,25.30
2019-02-02T10:31:05.479Z,27.10
2019-02-02T10:33:31.950Z,24.77
2019-02-02T10:35:58.433Z,27.83
2019-02-02T10:38:25.048Z,25.63
2019-02-02T10:40:51.507Z,25.20
2019-02-02T10:43:17.978Z,24.77
2019-02-02T10:45:44.526Z,25.03
2019-02-02T10:48:11.089Z,25.47
2019-02-02T10:50:37.558Z,26.33
2019-02-02T10:53:03.937Z,25.73
2019-02-02T10:55:30.387Z,26.43
2019-02-02T10:57:56.877Z,26.67
2019-02-02T11:00:25.244Z,23.77
2019-02-02T11:02:51.711Z,24.23
2019-02-02T11:05:18.245Z,23.50
2019-02-02T11:07:44.937Z,23.43
2019-02-02T11:10:13.100Z,24.07
2019-02-02T11:12:39.587Z,24.23
2019-02-02T11:15:08.475Z,24.97
2019-02-02T11:17:35.083Z,24.03
2019-02-02T11:20:02.919Z,24.00
2019-02-02T11:22:29.489Z,25.77
2019-02-02T11:24:56.120Z,25.13
2019-02-02T11:27:22.582Z,25.40
2019-02-02T11:29:49.285Z,24.63
2019-02-02T11:32:15.819Z,24.73
2019-02-02T11:34:42.291Z,24.20
2019-02-02T11:37:08.741Z,24.20
2019-02-02T11:39:35.278Z,22.73
2019-02-02T11:42:01.790Z,22.83
2019-02-02T11:44:28.183Z,23.03
2019-02-02T11:46:54.536Z,23.23
2019-02-02T11:49:23.875Z,25.83
2019-02-02T11:51:49.375Z,22.27
2019-02-02T11:54:15.853Z,21.83
2019-02-02T11:56:42.427Z,23.00
2019-02-02T11:59:08.892Z,23.27
2019-02-02T12:01:35.279Z,23.50
2019-02-02T12:04:01.728Z,22.50
2019-02-02T12:06:28.207Z,22.60
2019-02-02T12:08:54.663Z,21.00
2019-02-02T12:11:21.227Z,21.83
2019-02-02T12:13:47.683Z,23.70
2019-02-02T12:16:14.170Z,24.43
2019-02-02T12:18:40.953Z,24.00
2019-02-02T12:21:07.415Z,25.23
2019-02-02T12:23:33.879Z,25.87
2019-02-02T12:26:00.336Z,26.17
2019-02-02T12:28:26.911Z,24.23
2019-02-02T12:30:53.508Z,22.37
2019-02-02T12:33:19.973Z,24.23
2019-02-02T12:35:46.531Z,24.37
2019-02-02T12:38:13.288Z,24.27
2019-02-02T12:40:39.882Z,22.83
2019-02-02T12:43:06.473Z,21.37
2019-02-02T12:45:34.439Z,21.40
2019-02-02T12:48:00.862Z,22.13
2019-02-02T12:50:27.488Z,23.80
2019-02-02T12:52:53.963Z,19.57
2019-02-02T12:55:20.482Z,21.17
2019-02-02T12:57:47.107Z,20.07
2019-02-02T13:00:15.527Z,19.07
2019-02-02T13:02:42.141Z,18.30
2019-02-02T13:05:09.574Z,19.07
2019-02-02T13:07:36.038Z,17.80
2019-02-02T13:10:04.407Z,18.90
2019-02-02T13:12:30.936Z,19.63
2019-02-02T13:14:57.553Z,18.17
2019-02-02T13:17:24.187Z,18.07
2019-02-02T13:19:50.726Z,17.70
2019-02-02T13:22:17.231Z,18.80
2019-02-02T13:24:45.367Z,19.27
2019-02-02T13:27:12.103Z,17.97
2019-02-02T13:29:38.768Z,16.83
2019-02-02T13:32:05.292Z,18.43
2019-02-02T13:34:31.763Z,19.03
2019-02-02T13:36:58.279Z,18.57
2019-02-02T13:39:24.812Z,18.63
2019-02-02T13:41:52.521Z,18.70
2019-02-02T13:44:19.185Z,18.67
2019-02-02T13:46:45.704Z,18.83
2019-02-02T13:49:12.345Z,16.80
2019-02-02T13:51:39.255Z,15.93
2019-02-02T13:54:05.917Z,16.83
2019-02-02T13:56:32.533Z,16.37
2019-02-02T13:58:59.213Z,16.43
2019-02-02T14:01:25.717Z,16.80
2019-02-02T14:03:52.337Z,16.73
2019-02-02T14:06:18.766Z,16.30
2019-02-02T14:08:45.135Z,16.13
2019-02-02T14:11:11.588Z,16.60
2019-02-02T14:13:38.056Z,16.23
2019-02-02T14:16:04.499Z,16.07
2019-02-02T14:18:30.974Z,15.38
2019-02-02T14:20:57.440Z,15.18
2019-02-02T14:23:23.908Z,16.27
2019-02-02T14:25:50.359Z,15.70
2019-02-02T14:28:27.580Z,16.12
2019-02-02T14:30:45.204Z,17.27
2019-02-02T14:33:14.121Z,17.50
2019-02-02T14:35:40.040Z,16.25
2019-02-02T14:38:06.575Z,17.23
2019-02-02T14:40:33.043Z,16.90
2019-02-02T14:42:59.501Z,20.67
2019-02-02T14:45:27.603Z,20.40
2019-02-02T14:47:55.982Z,19.50
2019-02-02T14:50:22.767Z,18.63
2019-02-02T14:52:49.770Z,18.67
2019-02-02T14:55:17.840Z,19.63
2019-02-02T14:57:44.327Z,20.97
2019-02-02T15:00:12.596Z,22.53
2019-02-02T15:02:39.046Z,21.07
2019-02-02T15:05:08.439Z,19.47
2019-02-02T15:07:34.787Z,20.33
2019-02-02T15:10:01.646Z,20.33
2019-02-02T15:12:28.176Z,20.40
2019-02-02T15:14:54.575Z,21.17
2019-02-02T15:17:21.035Z,23.33
2019-02-02T15:19:47.499Z,22.43
2019-02-02T15:22:13.988Z,19.30
2019-02-02T15:24:40.631Z,20.27
2019-02-02T15:27:07.110Z,19.97
2019-02-02T15:29:33.559Z,21.87
2019-02-02T15:32:00.072Z,20.13
2019-02-02T15:34:26.628Z,18.77
2019-02-02T15:36:53.103Z,19.10
2019-02-02T15:39:19.629Z,20.87
2019-02-02T15:41:52.946Z,20.83
2019-02-02T15:44:14.530Z,22.17
2019-02-02T15:46:48.787Z,20.93
2019-02-02T15:49:09.296Z,20.03
2019-02-02T15:51:40.273Z,22.03
2019-02-02T15:54:04.101Z,21.83
2019-02-02T15:56:30.563Z,22.07
2019-02-02T15:58:57.030Z,21.20
2019-02-02T16:01:23.402Z,22.50
2019-02-02T16:03:50.141Z,21.93
2019-02-02T16:06:16.686Z,23.30
2019-02-02T16:08:43.139Z,20.87
2019-02-02T16:11:09.708Z,21.20
2019-02-02T16:13:36.422Z,20.33
2019-02-02T16:16:03.031Z,20.60
2019-02-02T16:18:29.512Z,21.57
2019-02-02T16:20:56.088Z,21.53
2019-02-02T16:23:22.436Z,23.17
2019-02-02T16:25:49.032Z,23.63
2019-02-02T16:28:15.500Z,23.17
2019-02-02T16:30:41.904Z,23.70
2019-02-02T16:33:08.367Z,23.57
2019-02-02T16:35:34.934Z,25.23
2019-02-02T16:38:01.745Z,24.40
2019-02-02T16:40:29.039Z,28.23
2019-02-02T16:42:55.511Z,27.50
2019-02-02T16:45:22.973Z,27.33
2019-02-02T16:47:49.739Z,27.03
2019-02-02T16:50:16.686Z,24.97
2019-02-02T16:52:43.472Z,23.00
2019-02-02T16:55:11.178Z,22.70
2019-02-02T16:57:37.863Z,23.03
2019-02-02T17:00:06.265Z,25.07
2019-02-02T17:02:32.741Z,25.23
2019-02-02T17:04:59.345Z,26.57
2019-02-02T17:07:26.022Z,24.27
2019-02-02T17:09:52.601Z,24.13
2019-02-02T17:12:19.055Z,24.73
2019-02-02T17:14:45.619Z,25.33
2019-02-02T17:17:12.126Z,24.07
2019-02-02T17:19:38.809Z,25.00
2019-02-02T17:22:05.263Z,23.63
2019-02-02T17:24:31.730Z,25.60
2019-02-02T17:26:58.274Z,22.30
2019-02-02T17:29:24.751Z,20.53
2019-02-02T17:31:51.354Z,20.00
2019-02-02T17:34:26.812Z,23.67
2019-02-02T17:36:47.504Z,31.50
2019-02-02T17:39:14.146Z,24.30
2019-02-02T17:41:40.726Z,25.30
2019-02-02T17:44:07.311Z,24.27
2019-02-02T17:46:33.884Z,24.93
2019-02-02T17:49:00.494Z,24.27
2019-02-02T17:51:26.826Z,25.17
2019-02-02T17:53:53.450Z,28.73
2019-02-02T17:56:20.074Z,25.97
2019-02-02T17:58:46.548Z,29.83
2019-02-02T18:01:13.089Z,29.17
2019-02-02T18:03:39.673Z,33.07
2019-02-02T18:06:06.335Z,30.03
2019-02-02T18:08:32.907Z,29.40
2019-02-02T18:10:59.522Z,29.07
2019-02-02T18:13:26.011Z,34.83
2019-02-02T18:15:52.810Z,33.77
2019-02-02T18:18:19.268Z,32.77
2019-02-02T18:20:45.696Z,33.50
2019-02-02T18:23:12.146Z,32.03
2019-02-02T18:25:38.612Z,32.00
2019-02-02T18:28:05.056Z,27.90
2019-02-02T18:30:31.547Z,29.97
2019-02-02T18:32:58.017Z,40.77
2019-02-02T18:35:24.575Z,36.27
2019-02-02T18:37:51.042Z,41.63
2019-02-02T18:40:18.577Z,31.37
2019-02-02T18:42:45.227Z,23.53
2019-02-02T18:45:13.616Z,21.50
2019-02-02T18:47:40.138Z,21.37
2019-02-02T18:50:08.336Z,23.97
2019-02-02T18:52:34.826Z,25.70
2019-02-02T18:55:01.186Z,26.10
2019-02-02T18:57:27.647Z,26.40
2019-02-02T18:59:54.340Z,24.67
2019-02-02T19:02:20.927Z,23.63
2019-02-02T19:04:47.383Z,23.67
2019-02-02T19:07:13.841Z,24.63
2019-02-02T19:09:40.315Z,24.87
2019-02-02T19:12:06.864Z,27.47
2019-02-02T19:14:33.243Z,27.77
2019-02-02T19:17:01.191Z,27.23
2019-02-02T19:19:28.047Z,26.77
2019-02-02T19:21:54.415Z,24.87
2019-02-02T19:24:22.951Z,25.73
2019-02-02T19:26:49.439Z,27.17
2019-02-02T19:29:15.996Z,24.53
2019-02-02T19:31:42.460Z,25.03
2019-02-02T19:34:08.923Z,28.63
2019-02-02T19:36:35.512Z,25.90
2019-02-02T19:39:03.514Z,31.03
2019-02-02T19:41:29.880Z,29.43
2019-02-02T19:43:56.445Z,31.07
2019-02-02T19:46:23.106Z,31.70
2019-02-02T19:48:49.550Z,28.70
2019-02-02T19:51:15.964Z,28.27
2019-02-02T19:53:42.743Z,26.67
2019-02-02T19:56:09.207Z,27.77
2019-02-02T19:58:35.706Z,28.10
2019-02-02T20:01:02.207Z,28.90
2019-02-02T20:03:28.650Z,27.00
2019-02-02T20:05:55.028Z,26.67
2019-02-02T20:08:21.468Z,24.77
2019-02-02T20:10:47.993Z,32.37
2019-02-02T20:13:14.369Z,29.77
2019-02-02T20:15:40.827Z,31.50
2019-02-02T20:18:09.984Z,30.67
2019-02-02T20:20:35.743Z,34.07
2019-02-02T20:23:02.215Z,33.73
2019-02-02T20:25:28.675Z,37.50
2019-02-02T20:27:55.271Z,34.53
2019-02-02T20:30:23.623Z,30.83
2019-02-02T20:32:50.103Z,36.30
2019-02-02T20:35:16.644Z,35.53
2019-02-02T20:37:43.136Z,29.10
2019-02-02T20:40:11.044Z,27.17
2019-02-02T20:42:37.519Z,32.33
2019-02-02T20:45:05.871Z,31.70
2019-02-02T20:47:32.249Z,32.17
2019-02-02T20:49:58.727Z,32.93
2019-02-02T20:52:25.204Z,32.47
2019-02-02T20:54:51.842Z,32.37
2019-02-02T20:57:18.493Z,31.53
2019-02-02T20:59:46.939Z,31.40
2019-02-02T21:02:13.681Z,31.70
2019-02-02T21:04:40.521Z,36.27
2019-02-02T21:07:07.073Z,34.53
2019-02-02T21:09:33.548Z,39.30
2019-02-02T21:12:00.111Z,35.50
2019-02-02T21:14:26.695Z,33.10
2019-02-02T21:16:53.155Z,29.13
2019-02-02T21:19:22.756Z,38.77
2019-02-02T21:21:49.102Z,38.53
2019-02-02T21:24:15.571Z,41.40
2019-02-02T21:26:42.209Z,37.63
2019-02-02T21:29:08.698Z,34.90
2019-02-02T21:31:35.284Z,33.10
2019-02-02T21:34:01.833Z,32.37
2019-02-02T21:36:28.683Z,34.40
2019-02-02T21:38:55.080Z,32.40
2019-02-02T21:41:21.626Z,29.70
2019-02-02T21:43:48.217Z,28.77
2019-02-02T21:46:14.991Z,28.30
2019-02-02T21:48:41.528Z,29.20
2019-02-02T21:51:08.102Z,30.03
2019-02-02T21:53:34.868Z,26.87
2019-02-02T21:56:01.346Z,28.30
2019-02-02T21:58:27.800Z,28.30
2019-02-02T22:00:54.291Z,27.93
2019-02-02T22:03:20.760Z,28.40
2019-02-02T22:05:47.338Z,28.10
2019-02-02T22:08:13.977Z,28.30
2019-02-02T22:10:40.820Z,27.70
2019-02-02T22:13:07.567Z,26.57
2019-02-02T22:15:34.053Z,27.43
2019-02-02T22:18:00.430Z,27.07
2019-02-02T22:20:26.912Z,28.20
2019-02-02T22:22:53.310Z,27.07
2019-02-02T22:25:20.871Z,27.10
2019-02-02T22:27:47.739Z,26.30
2019-02-02T22:30:16.211Z,27.93
2019-02-02T22:32:42.777Z,27.90
2019-02-02T22:35:09.285Z,28.07
2019-02-02T22:37:35.818Z,26.63
2019-02-02T22:40:04.101Z,27.47
2019-02-02T22:42:30.740Z,26.43
2019-02-02T22:44:57.194Z,27.47
2019-02-02T22:47:23.675Z,26.83
2019-02-02T22:49:50.094Z,27.30
2019-02-02T22:52:16.667Z,28.07
2019-02-02T22:54:43.024Z,28.83
2019-02-02T22:57:09.431Z,28.47
2019-02-02T22:59:36.295Z,26.80
2019-02-02T23:02:03.828Z,29.03
2019-02-02T23:04:31.975Z,29.23
2019-02-02T23:07:00.295Z,28.73
2019-02-02T23:09:27.747Z,28.53
2019-02-02T23:11:56.171Z,28.73
2019-02-02T23:14:24.647Z,29.17
2019-02-02T23:16:51.128Z,28.60
2019-02-02T23:19:17.555Z,28.57
2019-02-02T23:21:43.912Z,27.13
2019-02-02T23:24:10.309Z,27.03
2019-02-02T23:26:36.905Z,27.47
2019-02-02T23:29:03.616Z,25.40
2019-02-02T23:31:30.213Z,27.43
2019-02-02T23:33:56.681Z,28.83
2019-02-02T23:36:23.142Z,26.53
2019-02-02T23:38:49.708Z,27.23
2019-02-02T23:41:16.195Z,27.23
2019-02-02T23:43:42.775Z,32.33
2019-02-02T23:46:09.723Z,29.27
2019-02-02T23:48:36.311Z,28.73
2019-02-02T23:51:02.788Z,30.67
2019-02-02T23:53:29.398Z,30.97
2019-02-02T23:55:55.843Z,32.13
2019-02-02T23:58:22.313Z,29.83
